createdAt,value
2018-04-10T00:00:15.557Z,14.10
2018-04-10T00:02:43.835Z,14.10
2018-04-10T00:05:12.169Z,14.00
2018-04-10T00:07:40.454Z,14.00
2018-04-10T00:10:08.844Z,13.90
2018-04-10T00:12:37.208Z,13.90
2018-04-10T00:15:05.488Z,13.90
2018-04-10T00:17:33.806Z,13.80
2018-04-10T00:20:02.080Z,13.80
2018-04-10T00:22:30.379Z,13.70
2018-04-10T00:24:58.712Z,13.60
2018-04-10T00:27:27.017Z,13.60
2018-04-10T00:29:55.303Z,13.50
2018-04-10T00:32:23.628Z,13.50
2018-04-10T00:34:51.912Z,13.40
2018-04-10T00:37:20.236Z,13.40
2018-04-10T00:39:48.513Z,13.40
2018-04-10T00:42:16.802Z,13.40
2018-04-10T00:44:45.885Z,13.30
2018-04-10T00:47:14.256Z,13.30
2018-04-10T00:49:43.132Z,13.20
2018-04-10T00:52:11.409Z,13.20
2018-04-10T00:54:39.707Z,13.20
2018-04-10T00:57:08.013Z,13.10
2018-04-10T00:59:37.060Z,13.10
2018-04-10T01:02:05.470Z,13.10
2018-04-10T01:04:33.740Z,13.10
2018-04-10T01:07:02.025Z,13.00
2018-04-10T01:09:30.332Z,13.00
2018-04-10T01:11:58.677Z,12.80
2018-04-10T01:14:27.002Z,12.80
2018-04-10T01:16:55.284Z,12.70
2018-04-10T01:19:23.571Z,12.70
2018-04-10T01:21:51.881Z,12.70
2018-04-10T01:24:20.171Z,12.70
2018-04-10T01:26:48.498Z,12.60
2018-04-10T01:29:16.838Z,12.50
2018-04-10T01:31:45.113Z,12.50
2018-04-10T01:34:13.435Z,12.50
2018-04-10T01:36:41.750Z,12.50
2018-04-10T01:39:10.080Z,12.40
2018-04-10T01:41:39.256Z,12.40
2018-04-10T01:44:08.409Z,12.30
2018-04-10T01:46:36.715Z,12.30
2018-04-10T01:49:04.994Z,12.30
2018-04-10T01:51:33.392Z,12.20
2018-04-10T01:54:01.690Z,12.20
2018-04-10T01:56:29.984Z,12.10
2018-04-10T01:58:58.329Z,12.10
2018-04-10T02:01:27.371Z,12.00
2018-04-10T02:03:55.897Z,12.00
2018-04-10T02:06:24.235Z,12.00
2018-04-10T02:08:52.554Z,12.00
2018-04-10T02:13:54.428Z,11.90
2018-04-10T02:16:22.714Z,11.90
2018-04-10T02:18:51.268Z,11.80
2018-04-10T02:21:19.559Z,11.80
2018-04-10T02:23:47.865Z,11.80
2018-04-10T02:26:16.946Z,11.80
2018-04-10T02:28:45.223Z,11.70
2018-04-10T02:31:13.520Z,11.70
2018-04-10T02:33:43.595Z,11.70
2018-04-10T02:36:11.932Z,11.70
2018-04-10T02:38:40.969Z,11.60
2018-04-10T02:41:09.288Z,11.60
2018-04-10T02:43:38.349Z,11.50
2018-04-10T02:46:06.696Z,11.50
2018-04-10T02:48:34.998Z,11.50
2018-04-10T02:51:03.276Z,11.50
2018-04-10T02:53:31.606Z,11.50
2018-04-10T02:56:00.670Z,11.40
2018-04-10T02:58:28.985Z,11.40
2018-04-10T03:00:58.022Z,11.40
2018-04-10T03:03:26.313Z,11.30
2018-04-10T03:05:54.761Z,11.30
2018-04-10T03:08:23.812Z,11.30
2018-04-10T03:10:52.127Z,11.30
2018-04-10T03:13:20.425Z,11.30
2018-04-10T03:15:48.688Z,11.30
2018-04-10T03:18:17.024Z,11.30
2018-04-10T03:20:45.312Z,11.30
2018-04-10T03:23:13.613Z,11.20
2018-04-10T03:25:41.906Z,11.20
2018-04-10T03:28:10.236Z,11.20
2018-04-10T03:30:38.522Z,11.20
2018-04-10T03:33:06.790Z,11.20
2018-04-10T03:35:35.118Z,11.10
2018-04-10T03:38:03.407Z,11.10
2018-04-10T03:40:31.680Z,11.10
2018-04-10T03:43:00.875Z,11.10
2018-04-10T03:45:29.156Z,11.00
2018-04-10T03:47:57.507Z,11.10
2018-04-10T03:50:26.545Z,11.00
2018-04-10T03:52:54.866Z,11.00
2018-04-10T03:55:23.135Z,11.00
2018-04-10T03:57:51.440Z,11.00
2018-04-10T04:00:20.511Z,11.00
2018-04-10T04:02:48.876Z,10.90
2018-04-10T04:05:17.202Z,10.90
2018-04-10T04:07:45.488Z,10.90
2018-04-10T04:10:13.772Z,10.90
2018-04-10T04:12:42.079Z,10.80
2018-04-10T04:15:10.361Z,10.90
2018-04-10T04:17:38.669Z,10.80
2018-04-10T04:20:18.735Z,10.80
2018-04-10T04:22:47.026Z,10.80
2018-04-10T04:25:15.313Z,10.80
2018-04-10T04:27:43.631Z,10.80
2018-04-10T04:30:11.926Z,10.80
2018-04-10T04:32:40.239Z,10.80
2018-04-10T04:35:08.521Z,10.80
2018-04-10T04:37:36.808Z,10.80
2018-04-10T04:40:05.112Z,10.80
2018-04-10T04:42:33.400Z,10.80
2018-04-10T04:45:03.241Z,10.80
2018-04-10T04:47:32.736Z,10.80
2018-04-10T04:50:01.030Z,10.80
2018-04-10T04:52:30.098Z,10.90
2018-04-10T04:55:00.670Z,11.00
2018-04-10T04:57:34.147Z,11.00
2018-04-10T05:00:02.460Z,11.10
2018-04-10T05:02:30.841Z,11.20
2018-04-10T05:05:03.897Z,11.60
2018-04-10T05:07:32.182Z,11.60
2018-04-10T05:10:01.224Z,12.10
2018-04-10T05:12:29.520Z,12.10
2018-04-10T05:14:57.786Z,12.30
2018-04-10T05:17:26.084Z,12.50
2018-04-10T05:19:54.373Z,12.70
2018-04-10T05:22:22.695Z,12.90
2018-04-10T05:24:50.969Z,13.20
2018-04-10T05:27:19.227Z,13.30
2018-04-10T05:29:48.309Z,13.60
2018-04-10T05:32:16.576Z,13.60
2018-04-10T05:34:44.903Z,13.80
2018-04-10T05:37:13.946Z,14.00
2018-04-10T05:39:42.249Z,14.00
2018-04-10T05:42:10.563Z,14.20
2018-04-10T05:44:38.885Z,14.30
2018-04-10T05:47:07.212Z,14.40
2018-04-10T05:49:36.228Z,14.70
2018-04-10T05:52:04.526Z,14.60
2018-04-10T05:54:32.835Z,14.80
2018-04-10T05:57:02.242Z,14.90
2018-04-10T05:59:30.597Z,15.00
2018-04-10T06:01:58.866Z,15.00
2018-04-10T06:04:27.149Z,15.10
2018-04-10T06:06:57.592Z,15.20
2018-04-10T06:09:26.636Z,15.30
2018-04-10T06:11:55.032Z,15.40
2018-04-10T06:14:23.323Z,15.60
2018-04-10T06:16:52.370Z,15.70
2018-04-10T06:19:21.430Z,15.90
2018-04-10T06:21:49.703Z,15.80
2018-04-10T06:24:18.077Z,15.90
2018-04-10T06:26:47.109Z,16.20
2018-04-10T06:29:16.173Z,16.30
2018-04-10T06:31:44.487Z,16.30
2018-04-10T06:34:12.753Z,16.40
2018-04-10T06:36:41.079Z,16.50
2018-04-10T06:39:09.523Z,16.60
2018-04-10T06:41:38.569Z,16.90
2018-04-10T06:44:06.893Z,16.90
2018-04-10T06:46:35.789Z,17.00
2018-04-10T06:49:04.884Z,17.20
2018-04-10T06:51:33.935Z,17.30
2018-04-10T06:54:02.211Z,17.40
2018-04-10T06:56:30.519Z,17.50
2018-04-10T06:58:58.817Z,17.60
2018-04-10T07:01:27.895Z,17.80
2018-04-10T07:03:56.252Z,17.80
2018-04-10T07:06:24.579Z,17.90
2018-04-10T07:08:53.636Z,18.10
2018-04-10T07:11:21.923Z,18.00
2018-04-10T07:13:50.376Z,18.20
2018-04-10T07:16:18.653Z,18.20
2018-04-10T07:18:46.980Z,18.30
2018-04-10T07:21:16.723Z,18.50
2018-04-10T07:23:45.024Z,18.50
2018-04-10T07:26:13.343Z,18.60
2018-04-10T07:28:41.617Z,18.70
2018-04-10T07:31:09.953Z,18.80
2018-04-10T07:33:38.247Z,18.80
2018-04-10T07:36:06.551Z,18.80
2018-04-10T07:38:34.836Z,18.90
2018-04-10T07:41:03.936Z,19.10
2018-04-10T07:43:32.996Z,19.10
2018-04-10T07:46:01.330Z,19.10
2018-04-10T07:48:29.597Z,19.20
2018-04-10T07:50:58.646Z,19.50
2018-04-10T07:53:26.953Z,19.40
2018-04-10T07:55:55.565Z,19.60
2018-04-10T07:58:24.658Z,19.80
2018-04-10T08:00:53.825Z,19.90
2018-04-10T08:03:22.130Z,19.90
2018-04-10T08:05:50.416Z,20.00
2018-04-10T08:08:18.706Z,20.10
2018-04-10T08:10:47.052Z,20.10
2018-04-10T08:13:15.322Z,20.20
2018-04-10T08:15:43.604Z,20.30
2018-04-10T08:18:11.897Z,20.40
2018-04-10T08:20:40.987Z,20.60
2018-04-10T08:23:09.313Z,20.60
2018-04-10T08:25:37.600Z,20.70
2018-04-10T08:28:05.868Z,20.70
2018-04-10T08:30:34.281Z,20.80
2018-04-10T08:33:02.553Z,20.90
2018-04-10T08:35:30.905Z,21.00
2018-04-10T08:37:59.172Z,21.10
2018-04-10T08:40:27.452Z,21.20
2018-04-10T08:42:55.761Z,21.20
2018-04-10T08:45:24.050Z,21.30
2018-04-10T08:47:52.369Z,21.40
2018-04-10T08:50:21.395Z,21.60
2018-04-10T08:52:49.772Z,21.50
2018-04-10T08:55:18.088Z,21.60
2018-04-10T08:57:46.414Z,21.70
2018-04-10T09:00:14.732Z,21.80
2018-04-10T09:02:43.024Z,21.80
2018-04-10T09:05:11.309Z,21.90
2018-04-10T09:07:39.605Z,22.00
2018-04-10T09:10:08.645Z,22.10
2018-04-10T09:12:36.965Z,22.00
2018-04-10T09:15:05.275Z,22.10
2018-04-10T09:17:34.303Z,22.20
2018-04-10T09:20:02.793Z,22.20
2018-04-10T09:22:31.062Z,22.30
2018-04-10T09:24:59.379Z,22.40
2018-04-10T09:27:29.257Z,22.50
2018-04-10T09:29:57.577Z,22.50
2018-04-10T09:32:25.883Z,22.60
2018-04-10T09:34:54.911Z,22.70
2018-04-10T09:37:23.226Z,22.70
2018-04-10T09:39:51.499Z,22.70
2018-04-10T09:42:19.823Z,22.80
2018-04-10T09:44:48.091Z,22.70
2018-04-10T09:47:16.395Z,22.80
2018-04-10T09:49:44.690Z,22.80
2018-04-10T09:52:12.994Z,22.80
2018-04-10T09:54:41.345Z,22.90
2018-04-10T09:57:09.620Z,22.90
2018-04-10T09:59:37.894Z,23.00
2018-04-10T10:02:06.210Z,23.10
2018-04-10T10:04:34.487Z,23.10
2018-04-10T10:07:02.809Z,23.10
2018-04-10T10:09:31.145Z,23.10
2018-04-10T10:11:59.412Z,23.20
2018-04-10T10:14:27.745Z,23.20
2018-04-10T10:16:56.015Z,23.30
2018-04-10T10:19:25.078Z,23.40
2018-04-10T10:21:53.341Z,23.50
2018-04-10T10:24:21.668Z,23.50
2018-04-10T10:26:49.971Z,23.60
2018-04-10T10:29:18.249Z,23.70
2018-04-10T10:31:46.570Z,23.70
2018-04-10T10:34:14.847Z,23.80
2018-04-10T10:36:43.107Z,23.90
2018-04-10T10:39:11.462Z,23.90
2018-04-10T10:41:40.912Z,23.90
2018-04-10T10:44:09.617Z,23.90
2018-04-10T10:46:39.023Z,24.10
2018-04-10T10:49:07.688Z,24.00
2018-04-10T10:51:36.356Z,24.10
2018-04-10T10:54:04.926Z,24.10
2018-04-10T10:56:33.706Z,24.10
2018-04-10T10:59:02.164Z,24.10
2018-04-10T11:01:30.768Z,24.20
2018-04-10T11:04:00.346Z,24.30
2018-04-10T11:06:28.934Z,24.20
2018-04-10T11:08:57.621Z,24.30
2018-04-10T11:11:26.149Z,24.30
2018-04-10T11:13:54.807Z,24.30
2018-04-10T11:16:23.451Z,24.30
2018-04-10T11:18:51.988Z,24.40
2018-04-10T11:21:21.246Z,24.50
2018-04-10T11:23:49.852Z,24.60
2018-04-10T11:26:18.584Z,24.70
2018-04-10T11:28:47.246Z,24.80
2018-04-10T11:31:15.863Z,25.00
2018-04-10T11:33:44.499Z,25.30
2018-04-10T11:36:13.028Z,25.80
2018-04-10T11:38:42.518Z,27.40
2018-04-10T11:41:10.847Z,27.30
2018-04-10T11:43:39.427Z,28.20
2018-04-10T11:46:07.759Z,29.10
2018-04-10T11:48:36.039Z,29.80
2018-04-10T11:51:04.352Z,30.30
2018-04-10T11:53:32.681Z,30.90
2018-04-10T11:56:00.982Z,31.40
2018-04-10T11:58:29.272Z,32.00
2018-04-10T12:00:57.558Z,32.60
2018-04-10T12:03:25.903Z,33.40
2018-04-10T12:05:54.163Z,34.20
2018-04-10T12:08:22.476Z,34.90
2018-04-10T12:10:50.742Z,35.80
2018-04-10T12:13:19.795Z,37.30
2018-04-10T12:15:49.598Z,37.60
2018-04-10T12:18:17.872Z,37.50
2018-04-10T12:20:46.149Z,37.70
2018-04-10T12:23:14.457Z,38.00
2018-04-10T12:25:42.754Z,38.20
2018-04-10T12:28:11.054Z,38.20
2018-04-10T12:30:39.377Z,38.30
2018-04-10T12:33:07.690Z,38.50
2018-04-10T12:35:35.968Z,38.60
2018-04-10T12:38:04.899Z,38.60
2018-04-10T12:40:33.193Z,38.90
2018-04-10T12:43:01.588Z,39.40
2018-04-10T12:45:29.905Z,39.60
2018-04-10T12:47:58.201Z,39.80
2018-04-10T12:50:26.478Z,39.80
2018-04-10T12:52:54.764Z,39.60
2018-04-10T12:55:23.037Z,39.50
2018-04-10T12:57:51.374Z,39.70
2018-04-10T13:00:19.664Z,39.70
2018-04-10T13:02:47.939Z,39.60
2018-04-10T13:05:16.256Z,39.60
2018-04-10T13:07:44.533Z,39.70
2018-04-10T13:10:12.858Z,39.50
2018-04-10T13:12:41.161Z,39.30
2018-04-10T13:15:09.459Z,38.90
2018-04-10T13:17:37.749Z,38.50
2018-04-10T13:20:06.427Z,38.00
2018-04-10T13:22:34.733Z,38.10
2018-04-10T13:25:03.763Z,38.30
2018-04-10T13:27:32.047Z,38.30
2018-04-10T13:30:00.347Z,38.50
2018-04-10T13:32:28.677Z,38.60
2018-04-10T13:34:57.807Z,38.60
2018-04-10T13:37:26.081Z,38.60
2018-04-10T13:39:54.354Z,38.50
2018-04-10T13:42:22.649Z,38.60
2018-04-10T13:44:50.924Z,38.60
2018-04-10T13:47:19.293Z,38.50
2018-04-10T13:49:47.568Z,38.60
2018-04-10T13:52:15.842Z,38.70
2018-04-10T13:54:44.321Z,38.90
2018-04-10T13:57:12.605Z,39.10
2018-04-10T13:59:40.941Z,39.30
2018-04-10T14:02:09.234Z,39.50
2018-04-10T14:04:37.525Z,39.70
2018-04-10T14:07:06.607Z,39.80
2018-04-10T14:09:35.710Z,39.60
2018-04-10T14:12:04.005Z,39.50
2018-04-10T14:14:32.271Z,39.30
2018-04-10T14:17:01.430Z,39.20
2018-04-10T14:19:30.497Z,39.10
2018-04-10T14:21:58.809Z,39.10
2018-04-10T14:24:27.253Z,39.00
2018-04-10T14:26:55.534Z,38.90
2018-04-10T14:29:23.832Z,38.90
2018-04-10T14:31:52.131Z,38.30
2018-04-10T14:34:20.406Z,37.30
2018-04-10T14:36:48.738Z,36.30
2018-04-10T14:39:17.748Z,35.10
2018-04-10T14:41:46.074Z,35.00
2018-04-10T14:44:15.125Z,35.00
2018-04-10T14:46:43.417Z,34.90
2018-04-10T14:49:11.704Z,35.30
2018-04-10T14:51:40.226Z,35.30
2018-04-10T14:54:09.304Z,35.00
2018-04-10T14:56:37.620Z,35.00
2018-04-10T14:59:05.886Z,35.10
2018-04-10T15:01:35.344Z,35.20
2018-04-10T15:04:03.623Z,35.20
2018-04-10T15:06:31.928Z,34.60
2018-04-10T15:09:00.976Z,32.80
2018-04-10T15:11:29.399Z,32.80
2018-04-10T15:13:58.497Z,31.40
2018-04-10T15:16:27.521Z,30.60
2018-04-10T15:18:55.836Z,30.60
2018-04-10T15:21:24.264Z,30.10
2018-04-10T15:23:52.751Z,29.60
2018-04-10T15:26:21.096Z,29.30
2018-04-10T15:28:49.363Z,29.40
2018-04-10T15:31:17.716Z,30.00
2018-04-10T15:33:46.019Z,30.60
2018-04-10T15:36:14.773Z,31.00
2018-04-10T15:38:43.115Z,31.20
2018-04-10T15:41:12.301Z,31.10
2018-04-10T15:43:40.627Z,31.10
2018-04-10T15:46:09.710Z,30.80
2018-04-10T15:48:38.776Z,29.60
2018-04-10T15:51:07.131Z,29.60
2018-04-10T15:53:35.405Z,29.00
2018-04-10T15:56:03.936Z,28.40
2018-04-10T15:58:32.208Z,27.90
2018-04-10T16:01:01.264Z,26.90
2018-04-10T16:03:29.577Z,26.80
2018-04-10T16:05:57.898Z,26.50
2018-04-10T16:08:26.230Z,26.20
2018-04-10T16:10:54.530Z,25.90
2018-04-10T16:13:23.615Z,25.90
2018-04-10T16:15:53.602Z,26.00
2018-04-10T16:18:21.960Z,25.90
2018-04-10T16:20:50.245Z,26.00
2018-04-10T16:23:18.541Z,26.20
2018-04-10T16:25:47.048Z,26.40
2018-04-10T16:28:15.402Z,26.90
2018-04-10T16:30:43.824Z,27.20
2018-04-10T16:33:12.897Z,27.80
2018-04-10T16:35:42.142Z,28.00
2018-04-10T16:38:10.459Z,27.90
2018-04-10T16:40:38.723Z,28.10
2018-04-10T16:43:07.047Z,28.20
2018-04-10T16:45:36.107Z,28.30
2018-04-10T16:48:04.455Z,28.20
2018-04-10T16:50:32.733Z,28.20
2018-04-10T16:53:01.087Z,28.20
2018-04-10T16:55:30.168Z,28.10
2018-04-10T16:57:58.499Z,28.10
2018-04-10T17:00:26.840Z,28.00
2018-04-10T17:02:56.064Z,27.70
2018-04-10T17:05:24.400Z,27.70
2018-04-10T17:07:53.443Z,27.70
2018-04-10T17:10:21.762Z,27.50
2018-04-10T17:12:50.112Z,27.40
2018-04-10T17:15:18.403Z,27.20
2018-04-10T17:17:46.775Z,27.00
2018-04-10T17:20:15.052Z,26.70
2018-04-10T17:22:43.343Z,26.40
2018-04-10T17:25:11.711Z,26.10
2018-04-10T17:27:40.036Z,25.80
2018-04-10T17:30:08.374Z,25.50
2018-04-10T17:32:36.712Z,25.20
2018-04-10T17:35:05.875Z,24.80
2018-04-10T17:37:34.371Z,24.70
2018-04-10T17:40:02.742Z,24.50
2018-04-10T17:42:31.010Z,24.30
2018-04-10T17:44:59.454Z,24.00
2018-04-10T17:47:27.795Z,23.90
2018-04-10T17:49:56.132Z,23.60
2018-04-10T17:52:24.482Z,23.50
2018-04-10T17:58:03.289Z,23.20
2018-04-10T18:00:31.588Z,23.10
2018-04-10T18:03:00.003Z,23.00
2018-04-10T18:05:28.373Z,22.80
2018-04-10T18:07:56.691Z,22.70
2018-04-10T18:10:25.054Z,22.50
2018-04-10T18:12:53.468Z,22.40
2018-04-10T18:15:21.760Z,22.30
2018-04-10T18:17:50.934Z,22.10
2018-04-10T18:20:19.367Z,22.00
2018-04-10T18:22:48.746Z,21.80
2018-04-10T18:25:17.831Z,21.70
2018-04-10T18:27:46.173Z,21.70
2018-04-10T18:30:14.593Z,21.60
2018-04-10T18:32:42.996Z,21.50
2018-04-10T18:35:11.352Z,21.40
2018-04-10T18:37:39.792Z,21.40
2018-04-10T18:40:08.198Z,21.30
2018-04-10T18:42:36.531Z,21.20
2018-04-10T18:45:05.097Z,21.10
2018-04-10T18:47:33.500Z,21.00
2018-04-10T18:50:01.893Z,20.90
2018-04-10T18:52:30.223Z,20.80
2018-04-10T18:54:58.565Z,20.80
2018-04-10T18:57:26.933Z,20.70
2018-04-10T18:59:55.402Z,20.60
2018-04-10T19:02:23.928Z,20.50
2018-04-10T19:04:52.265Z,20.40
2018-04-10T19:07:20.609Z,20.30
2018-04-10T19:09:49.811Z,20.30
2018-04-10T19:12:18.144Z,20.20
2018-04-10T19:14:46.521Z,20.10
2018-04-10T19:17:14.935Z,20.10
2018-04-10T19:19:44.822Z,20.00
2018-04-10T19:22:13.165Z,20.00
2018-04-10T19:24:41.536Z,20.00
2018-04-10T19:27:10.635Z,19.90
2018-04-10T19:29:39.889Z,19.80
2018-04-10T19:32:08.192Z,19.80
2018-04-10T19:34:36.588Z,19.80
2018-04-10T19:37:04.942Z,19.70
2018-04-10T19:39:33.278Z,19.70
2018-04-10T19:42:01.683Z,19.60
2018-04-10T19:44:30.056Z,19.60
2018-04-10T19:46:59.193Z,19.60
2018-04-10T19:49:27.561Z,19.50
2018-04-10T19:51:55.881Z,19.40
2018-04-10T19:54:24.267Z,19.40
2018-04-10T19:56:52.615Z,19.30
2018-04-10T19:59:20.964Z,19.30
2018-04-10T20:01:50.038Z,19.20
2018-04-10T20:04:18.424Z,19.20
2018-04-10T20:06:46.807Z,19.10
2018-04-10T20:09:15.116Z,19.10
2018-04-10T20:11:43.487Z,19.00
2018-04-10T20:14:11.791Z,19.00
2018-04-10T20:16:40.894Z,18.90
2018-04-10T20:19:09.975Z,18.80
2018-04-10T20:21:38.263Z,18.80
2018-04-10T20:24:07.396Z,18.70
2018-04-10T20:26:35.683Z,18.80
2018-04-10T20:29:04.054Z,18.70
2018-04-10T20:31:32.388Z,18.70
2018-04-10T20:34:00.667Z,18.60
2018-04-10T20:36:28.948Z,18.60
2018-04-10T20:38:58.044Z,18.50
2018-04-10T20:41:26.362Z,18.50
2018-04-10T20:43:54.709Z,18.50
2018-04-10T20:46:23.891Z,18.40
2018-04-10T20:48:52.251Z,18.40
2018-04-10T20:51:20.542Z,18.40
2018-04-10T20:53:49.280Z,18.40
2018-04-10T20:56:17.716Z,18.30
2018-04-10T20:58:46.313Z,18.30
2018-04-10T21:01:14.633Z,18.30
2018-04-10T21:03:43.703Z,18.30
2018-04-10T21:06:12.000Z,18.20
2018-04-10T21:08:40.330Z,18.20
2018-04-10T21:11:08.611Z,18.10
2018-04-10T21:13:36.873Z,18.10
2018-04-10T21:16:05.174Z,18.10
2018-04-10T21:18:33.460Z,18.10
2018-04-10T21:21:02.544Z,18.00
2018-04-10T21:23:30.858Z,18.00
2018-04-10T21:25:59.181Z,18.00
2018-04-10T21:28:27.541Z,18.00
2018-04-10T21:30:55.829Z,18.00
2018-04-10T21:33:24.175Z,17.90
2018-04-10T21:35:53.230Z,17.90
2018-04-10T21:38:21.509Z,17.90
2018-04-10T21:40:49.849Z,17.90
2018-04-10T21:43:23.761Z,17.90
2018-04-10T21:45:52.081Z,17.80
2018-04-10T21:48:21.021Z,17.80
2018-04-10T21:50:49.288Z,17.80
2018-04-10T21:53:17.589Z,17.70
2018-04-10T21:55:45.880Z,17.70
2018-04-10T21:58:14.201Z,17.60
2018-04-10T22:00:43.244Z,17.50
2018-04-10T22:03:11.558Z,17.50
2018-04-10T22:05:40.602Z,17.40
2018-04-10T22:08:08.905Z,17.40
2018-04-10T22:10:37.190Z,17.40
2018-04-10T22:13:05.481Z,17.30
2018-04-10T22:15:34.616Z,17.30
2018-04-10T22:18:02.928Z,17.30
2018-04-10T22:20:31.264Z,17.20
2018-04-10T22:22:59.539Z,17.10
2018-04-10T22:25:28.587Z,17.00
2018-04-10T22:27:57.716Z,17.00
2018-04-10T22:30:25.994Z,17.00
2018-04-10T22:32:54.228Z,16.90
2018-04-10T22:35:22.531Z,16.90
2018-04-10T22:37:51.572Z,16.80
2018-04-10T22:40:19.919Z,16.80
2018-04-10T22:42:48.962Z,16.70
2018-04-10T22:45:17.251Z,16.70
2018-04-10T22:47:45.552Z,16.70
2018-04-10T22:50:13.838Z,16.60
2018-04-10T22:52:42.920Z,16.60
2018-04-10T22:55:11.288Z,16.50
2018-04-10T22:57:39.553Z,16.60
2018-04-10T23:00:07.854Z,16.60
2018-04-10T23:02:35.889Z,16.50
2018-04-10T23:05:04.215Z,16.50
2018-04-10T23:07:33.264Z,16.50
2018-04-10T23:10:01.545Z,16.40
2018-04-10T23:12:29.862Z,16.40
2018-04-10T23:14:58.140Z,16.40
2018-04-10T23:17:26.433Z,16.40
2018-04-10T23:19:54.741Z,16.40
2018-04-10T23:22:23.773Z,16.40
2018-04-10T23:24:52.114Z,16.30
2018-04-10T23:27:21.161Z,16.40
2018-04-10T23:29:50.285Z,16.40
2018-04-10T23:32:18.584Z,16.30
2018-04-10T23:34:46.863Z,16.30
2018-04-10T23:37:15.161Z,16.20
2018-04-10T23:39:43.472Z,16.20
2018-04-10T23:42:11.821Z,16.10
2018-04-10T23:44:40.088Z,16.10
2018-04-10T23:47:09.121Z,16.10
2018-04-10T23:49:37.396Z,16.00
2018-04-10T23:52:05.668Z,16.00
2018-04-10T23:54:33.992Z,16.00
2018-04-10T23:57:02.249Z,16.00
2018-04-10T23:59:30.524Z,16.00
